Time;durP1;ratioP1;P1;durP2;ratioP2;P2;SDS_P1;SDS_P2;PMS_P1;PMS_P2;Temp;Humidity;BMP_temperature;BMP_pressure;BME280_temperature;BME280_humidity;BME280_pressure;Samples;Min_cycle;Max_cycle;Signal;HPM_P1;HPM_P2
2022/04/10 00:00:50;;;;;;;7.85;2.45;;;;;;;;;;5093647;28;20565;-60
2022/04/10 00:03:16;;;;;;;17.60;3.75;;;;;;;;;;5093470;28;20084;-60
2022/04/10 00:05:42;;;;;;;11.75;3.45;;;;;;;;;;5093516;28;20050;-60
2022/04/10 00:08:08;;;;;;;14.65;2.53;;;;;;;;;;5075671;28;20040;-60
2022/04/10 00:10:34;;;;;;;9.20;2.20;;;;;;;;;;5093661;28;20052;-60
2022/04/10 00:13:00;;;;;;;11.27;2.80;;;;;;;;;;5094415;28;20047;-60
2022/04/10 00:15:26;;;;;;;11.98;3.17;;;;;;;;;;5092654;28;20105;-60
2022/04/10 00:17:52;;;;;;;13.60;2.35;;;;;;;;;;5093287;28;20456;-60
2022/04/10 00:20:18;;;;;;;9.98;3.50;;;;;;;;;;5094120;28;20526;-60
2022/04/10 00:22:45;;;;;;;7.88;2.15;;;;;;;;;;5093671;28;20044;-61
2022/04/10 00:25:12;;;;;;;8.32;2.60;;;;;;;;;;5094287;28;20131;-60
2022/04/10 00:27:38;;;;;;;13.80;3.25;;;;;;;;;;5094470;28;20071;-60
2022/04/10 00:30:05;;;;;;;8.90;2.25;;;;;;;;;;5092181;28;20061;-60
2022/04/10 00:32:31;;;;;;;11.73;2.92;;;;;;;;;;5092851;28;20119;-60
2022/04/10 00:34:57;;;;;;;13.13;3.92;;;;;;;;;;5092577;28;20132;-60
2022/04/10 00:37:23;;;;;;;12.50;2.55;;;;;;;;;;5091948;28;20467;-60
2022/04/10 00:39:49;;;;;;;15.30;3.92;;;;;;;;;;5092913;28;20067;-60
2022/04/10 00:42:15;;;;;;;9.63;2.40;;;;;;;;;;5093136;28;20036;-60
2022/04/10 00:44:41;;;;;;;8.73;2.75;;;;;;;;;;5093875;28;20048;-60
2022/04/10 00:47:10;;;;;;;9.65;2.53;;;;;;;;;;5094101;28;20408;-60
2022/04/10 00:49:36;;;;;;;12.63;2.85;;;;;;;;;;5074973;28;20044;-60
2022/04/10 00:52:02;;;;;;;8.38;2.40;;;;;;;;;;5093660;28;20040;-60
2022/04/10 00:54:30;;;;;;;8.63;2.40;;;;;;;;;;5093493;28;20374;-60
2022/04/10 00:56:57;;;;;;;8.23;2.88;;;;;;;;;;5092740;28;20114;-61
2022/04/10 00:59:23;;;;;;;9.10;2.67;;;;;;;;;;5092072;28;20052;-60
2022/04/10 01:01:49;;;;;;;15.15;3.63;;;;;;;;;;5093187;28;20056;-60
2022/04/10 01:04:16;;;;;;;11.45;2.50;;;;;;;;;;5092848;28;20113;-61
2022/04/10 01:06:47;;;;;;;10.70;2.70;;;;;;;;;;5092772;28;20480;-60
2022/04/10 01:09:14;;;;;;;12.88;2.38;;;;;;;;;;5093375;28;20067;-60
2022/04/10 01:11:40;;;;;;;11.93;2.90;;;;;;;;;;5091272;28;20127;-60
2022/04/10 01:14:06;;;;;;;12.65;2.55;;;;;;;;;;5092250;28;20131;-60
2022/04/10 01:16:34;;;;;;;15.02;2.90;;;;;;;;;;5092022;28;20496;-60
2022/04/10 01:19:02;;;;;;;7.32;2.13;;;;;;;;;;5090995;28;20127;-61
2022/04/10 01:21:28;;;;;;;11.93;2.60;;;;;;;;;;5091718;28;20310;-61
2022/04/10 01:23:56;;;;;;;9.30;2.65;;;4.20;99.90;;;;;;5093158;28;20040;-60
2022/04/10 01:26:23;;;;;;;14.20;3.70;;;4.30;99.90;;;;;;5092365;28;20039;-61
2022/04/10 01:29:03;;;;;;;11.55;2.53;;;3.90;99.90;;;;;;5092037;28;20070;-60
2022/04/10 01:31:31;;;;;;;12.25;3.25;;;4.10;99.90;;;;;;5092207;28;20079;-60
2022/04/10 01:34:00;;;;;;;9.63;2.92;;;3.70;99.90;;;;;;5092800;28;20445;-60
2022/04/10 01:36:27;;;;;;;8.95;2.88;;;3.90;99.90;;;;;;5092818;28;20040;-61
2022/04/10 01:38:55;;;;;;;10.40;2.97;;;4.10;99.90;;;;;;5090715;28;20040;-60
2022/04/10 01:41:25;;;;;;;13.93;1.88;;;3.90;99.90;;;;;;5092652;28;20042;-60
2022/04/10 01:43:52;;;;;;;11.10;3.25;;;4.00;99.90;;;;;;5092892;28;20036;-60
2022/04/10 01:46:18;;;;;;;10.10;2.83;;;;;;;;;;5092057;28;20051;-60
2022/04/10 01:48:44;;;;;;;9.23;2.75;;;;;;;;;;5092663;28;20047;-60
2022/04/10 01:51:10;;;;;;;11.07;2.33;;;;;;;;;;5092532;28;20040;-60
2022/04/10 01:53:37;;;;;;;9.32;2.65;;;3.90;99.90;;;;;;5090899;28;20048;-60
2022/04/10 01:56:03;;;;;;;9.43;2.22;;;4.10;99.90;;;;;;5092462;28;20040;-60
2022/04/10 01:58:30;;;;;;;20.20;3.25;;;4.00;99.90;;;;;;5092515;28;20043;-60
2022/04/10 02:00:55;;;;;;;8.90;3.35;;;4.10;99.90;;;;;;5090167;28;20059;-60
2022/04/10 02:03:21;;;;;;;8.70;2.58;;;4.20;99.90;;;;;;5091159;28;20048;-60
2022/04/10 02:05:48;;;;;;;8.57;2.17;;;3.90;99.90;;;;;;5092381;28;20072;-60
2022/04/10 02:08:14;;;;;;;11.55;2.30;;;4.10;99.90;;;;;;5073484;28;20472;-61
2022/04/10 02:10:40;;;;;;;8.48;1.55;;;4.10;99.90;;;;;;5092188;28;20442;-60
2022/04/10 02:13:09;;;;;;;7.00;1.85;;;;;;;;;;5091271;28;20075;-61
2022/04/10 02:15:39;;;;;;;6.57;3.30;;;3.90;99.90;;;;;;5090813;28;20131;-61
2022/04/10 02:18:05;;;;;;;9.32;1.65;;;4.10;99.90;;;;;;5091966;28;20128;-60
2022/04/10 02:20:31;;;;;;;6.43;1.85;;;4.20;99.90;;;;;;5090683;28;20043;-60
2022/04/10 02:22:57;;;;;;;7.70;1.80;;;;;;;;;;5091365;28;20043;-61
2022/04/10 02:25:23;;;;;;;5.38;1.38;;;;;;;;;;5092081;28;20042;-61
2022/04/10 02:27:49;;;;;;;3.55;1.27;;;4.50;99.90;;;;;;5091307;28;20485;-60
2022/04/10 02:30:14;;;;;;;4.25;1.65;;;4.40;99.90;;;;;;5090597;28;20050;-60
2022/04/10 02:32:40;;;;;;;5.75;1.25;;;4.50;99.90;;;;;;5092077;28;20079;-62
2022/04/10 02:35:08;;;;;;;7.28;1.40;;;5.50;99.90;;;;;;5091575;28;20064;-62
2022/04/10 02:37:34;;;;;;;4.45;1.60;;;4.80;99.90;;;;;;5074108;28;20047;-62
2022/04/10 02:40:01;;;;;;;8.10;1.27;;;4.70;99.90;;;;;;5092232;28;20051;-62
2022/04/10 02:42:27;;;;;;;7.53;1.65;;;4.60;99.90;;;;;;5072986;28;20040;-62
2022/04/10 02:44:54;;;;;;;7.90;2.15;;;4.30;99.90;;;;;;5091951;28;20389;-62
2022/04/10 02:47:20;;;;;;;9.75;2.08;;;4.30;99.90;;;;;;5092010;28;20044;-62
2022/04/10 02:49:46;;;;;;;7.20;1.60;;;4.30;99.90;;;;;;5089639;28;20040;-62
2022/04/10 02:52:12;;;;;;;8.20;1.70;;;4.00;99.90;;;;;;5091802;28;20531;-62
2022/04/10 02:54:38;;;;;;;6.13;1.40;;;4.50;99.90;;;;;;5091130;28;20040;-62
2022/04/10 02:57:04;;;;;;;6.15;1.27;;;4.60;99.90;;;;;;5091247;28;20028;-62
2022/04/10 02:59:30;;;;;;;7.75;1.90;;;;;;;;;;5091654;28;20488;-62
2022/04/10 03:01:55;;;;;;;6.60;1.30;;;4.30;99.90;;;;;;5090278;28;20493;-62
2022/04/10 03:04:21;;;;;;;5.13;1.38;;;4.00;99.90;;;;;;5090782;28;20051;-62
2022/04/10 03:06:47;;;;;;;4.70;1.00;;;4.00;99.90;;;;;;5091750;28;20032;-62
2022/04/10 03:09:12;;;;;;;4.75;1.17;;;3.70;99.90;;;;;;5091671;28;20109;-62
2022/04/10 03:11:38;;;;;;;3.42;0.82;;;5.70;99.90;;;;;;5091350;28;20451;-62
2022/04/10 03:14:03;;;;;;;3.05;0.68;;;4.10;99.90;;;;;;5090438;28;20072;-62
2022/04/10 03:16:29;;;;;;;4.93;0.90;;;4.60;99.90;;;;;;5090647;28;20036;-62
2022/04/10 03:18:55;;;;;;;1.98;0.70;;;3.70;99.90;;;;;;5089620;28;20040;-62
2022/04/10 03:21:21;;;;;;;4.30;0.90;;;4.00;99.90;;;;;;5091589;28;20093;-62
2022/04/10 03:23:47;;;;;;;6.25;1.23;;;4.10;99.90;;;;;;5090516;28;20043;-62
2022/04/10 03:26:12;;;;;;;3.25;1.10;;;4.00;99.90;;;;;;5090974;28;20036;-62
2022/04/10 03:28:39;;;;;;;3.30;1.00;;;4.20;99.90;;;;;;5090567;28;20040;-62
2022/04/10 03:31:04;;;;;;;6.00;1.30;;;4.20;99.90;;;;;;5093722;28;20036;-62
2022/04/10 03:33:30;;;;;;;9.15;1.27;;;;;;;;;;5093969;28;20043;-62
2022/04/10 03:35:56;;;;;;;5.13;1.13;;;;;;;;;;5095120;28;20040;-62
2022/04/10 03:38:22;;;;;;;6.45;1.40;;;;;;;;;;5093255;28;20048;-62
2022/04/10 03:40:48;;;;;;;5.68;1.27;;;;;;;;;;5095093;28;20046;-62
2022/04/10 03:43:14;;;;;;;6.10;1.20;;;;;;;;;;5093896;28;20405;-62
2022/04/10 03:45:41;;;;;;;11.30;2.47;;;3.90;99.90;;;;;;5093137;28;20036;-62
2022/04/10 03:48:08;;;;;;;7.80;1.67;;;3.90;99.90;;;;;;5093906;28;20396;-62
2022/04/10 03:50:35;;;;;;;4.50;1.40;;;3.70;99.90;;;;;;5094971;28;20044;-61
2022/04/10 03:53:01;;;;;;;7.75;2.22;;;4.00;99.90;;;;;;5094240;28;20123;-62
2022/04/10 03:55:27;;;;;;;9.23;1.67;;;3.70;99.90;;;;;;5094916;28;20195;-62
2022/04/10 03:57:53;;;;;;;6.28;1.77;;;3.70;99.90;;;;;;5093612;28;20088;-62
2022/04/10 04:00:19;;;;;;;6.88;1.58;;;3.60;99.90;;;;;;5093438;28;20079;-62
2022/04/10 04:02:45;;;;;;;9.23;1.73;;;3.50;99.90;;;;;;5093428;28;20089;-62
2022/04/10 04:05:12;;;;;;;8.15;1.85;;;3.20;99.90;;;;;;5093208;28;20564;-62
2022/04/10 04:07:38;;;;;;;8.45;1.63;;;4.70;99.90;;;;;;5093251;28;20068;-62
2022/04/10 04:10:06;;;;;;;10.43;3.08;;;3.50;99.90;;;;;;5093497;28;20102;-62
2022/04/10 04:12:32;;;;;;;10.75;3.72;;;;;;;;;;5093216;28;20040;-62
2022/04/10 04:14:58;;;;;;;12.13;5.85;;;3.40;99.90;;;;;;5092713;28;20036;-62
2022/04/10 04:17:24;;;;;;;10.55;3.35;;;;;;;;;;5076323;28;20043;-62
2022/04/10 04:19:53;;;;;;;7.70;2.10;;;3.60;99.90;;;;;;5094257;28;20393;-62
2022/04/10 04:22:19;;;;;;;10.50;2.33;;;3.50;99.90;;;;;;5093597;28;20075;-62
2022/04/10 04:24:45;;;;;;;8.10;2.38;;;3.50;99.90;;;;;;5094304;28;20113;-62
2022/04/10 04:27:11;;;;;;;5.45;1.73;;;3.40;99.90;;;;;;5093974;28;20032;-62
2022/04/10 04:29:36;;;;;;;12.50;2.03;;;3.50;99.90;;;;;;5094002;28;20115;-62
2022/04/10 04:32:03;;;;;;;8.65;1.92;;;3.50;99.90;;;;;;5092913;28;20397;-62
2022/04/10 04:34:29;;;;;;;12.38;2.10;;;;;;;;;;5092226;28;20044;-62
2022/04/10 04:36:55;;;;;;;10.75;2.88;;;;;;;;;;5094002;28;20591;-62
2022/04/10 04:39:21;;;;;;;4.22;1.45;;;3.50;99.90;;;;;;5093956;28;20123;-62
2022/04/10 04:41:47;;;;;;;7.80;2.78;;;;;;;;;;5092408;28;20111;-62
2022/04/10 04:44:13;;;;;;;11.32;1.50;;;;;;;;;;5093770;28;20043;-62
2022/04/10 04:46:38;;;;;;;6.20;1.48;;;3.30;99.90;;;;;;5094057;28;20039;-62
2022/04/10 04:49:04;;;;;;;8.27;1.60;;;3.60;99.90;;;;;;5074902;28;20044;-62
2022/04/10 04:51:34;;;;;;;7.32;2.10;;;3.50;99.90;;;;;;5096325;28;20035;-62
2022/04/10 04:54:01;;;;;;;7.70;2.05;;;3.50;99.90;;;;;;5098934;28;20122;-62
2022/04/10 04:56:27;;;;;;;5.35;1.48;;;;;;;;;;5108192;28;20415;-62
2022/04/10 04:58:53;;;;;;;7.55;1.40;;;;;;;;;;5110567;28;20044;-62
2022/04/10 05:01:19;;;;;;;7.47;1.63;;;;;;;;;;5094672;28;20127;-62
2022/04/10 05:03:45;;;;;;;8.18;2.05;;;;;;;;;;5102015;28;20051;-62
2022/04/10 05:06:11;;;;;;;10.27;1.98;;;;;;;;;;5109688;28;20259;-62
2022/04/10 05:08:37;;;;;;;5.28;1.60;;;3.60;99.90;;;;;;5111311;28;20480;-62
2022/04/10 05:11:03;;;;;;;7.40;1.58;;;3.60;99.90;;;;;;5108931;28;20109;-62
2022/04/10 05:13:29;;;;;;;5.47;2.10;;;;;;;;;;5109471;28;20186;-62
2022/04/10 05:15:55;;;;;;;9.57;2.35;;;;;;;;;;5109652;28;20089;-62
2022/04/10 05:18:21;;;;;;;6.95;1.70;;;;;;;;;;5110391;28;20043;-62
2022/04/10 05:20:47;;;;;;;6.57;1.90;;;;;;;;;;5110637;28;20074;-62
2022/04/10 05:23:17;;;;;;;7.18;2.03;;;;;;;;;;5092575;28;20067;-62
2022/04/10 05:25:43;;;;;;;10.00;2.10;;;;;;;;;;5108636;28;20043;-62
2022/04/10 05:28:09;;;;;;;5.60;2.00;;;;;;;;;;5107028;28;20047;-62
2022/04/10 05:30:35;;;;;;;9.75;3.55;;;4.00;99.90;;;;;;5108856;28;20044;-62
2022/04/10 05:33:01;;;;;;;8.25;2.10;;;;;;;;;;5109710;28;20069;-62
2022/04/10 05:35:27;;;;;;;8.70;1.77;;;;;;;;;;5108814;28;20039;-62
2022/04/10 05:37:53;;;;;;;6.65;1.50;;;;;;;;;;5108279;28;20069;-62
2022/04/10 05:40:21;;;;;;;7.88;1.88;;;;;;;;;;5109120;28;20039;-62
2022/04/10 05:42:47;;;;;;;6.82;2.47;;;;;;;;;;5110107;28;20047;-62
2022/04/10 05:45:13;;;;;;;7.63;1.67;;;;;;;;;;5109354;28;20044;-62
2022/04/10 05:47:44;;;;;;;6.72;1.67;;;4.00;99.90;;;;;;5109185;28;20039;-62
2022/04/10 05:50:11;;;;;;;8.77;1.83;;;4.00;99.90;;;;;;5108760;28;20035;-62
2022/04/10 05:52:48;;;;;;;7.03;1.85;;;4.20;99.90;;;;;;5109457;28;20430;-62
2022/04/10 05:55:16;;;;;;;7.95;1.98;;;4.40;99.90;;;;;;5108808;28;20090;-62
2022/04/10 05:57:42;;;;;;;5.18;1.20;;;;;;;;;;5110040;28;20377;-62
2022/04/10 06:00:10;;;;;;;4.22;1.30;;;;;;;;;;5109657;28;20039;-62
2022/04/10 06:02:37;;;;;;;5.70;1.60;;;4.20;99.90;;;;;;5109007;28;20508;-62
2022/04/10 06:05:03;;;;;;;5.75;1.10;;;4.10;99.90;;;;;;5106669;28;20055;-62
2022/04/10 06:07:29;;;;;;;3.70;1.20;;;4.30;99.90;;;;;;5106955;28;20051;-62
2022/04/10 06:09:55;;;;;;;2.83;0.98;;;;;;;;;;5105465;28;20399;-62
2022/04/10 06:12:20;;;;;;;4.55;1.40;;;4.50;99.90;;;;;;5106393;28;20042;-62
2022/04/10 06:14:46;;;;;;;5.00;1.55;;;;;;;;;;5109252;28;20031;-62
2022/04/10 06:17:12;;;;;;;6.28;2.35;;;;;;;;;;5108114;28;20682;-62
2022/04/10 06:19:38;;;;;;;6.38;1.65;;;;;;;;;;5098758;28;20371;-62
2022/04/10 06:22:05;;;;;;;7.10;1.80;;;;;;;;;;5088848;28;20119;-62
2022/04/10 06:24:31;;;;;;;9.57;2.47;;;;;;;;;;5071583;28;20048;-62
2022/04/10 06:26:57;;;;;;;7.25;1.10;;;;;;;;;;5084761;28;20044;-62
2022/04/10 06:29:23;;;;;;;9.23;1.55;;;;;;;;;;5088372;28;20081;-62
2022/04/10 06:31:49;;;;;;;10.05;3.33;;;;;;;;;;5089672;28;20059;-62
2022/04/10 06:34:15;;;;;;;10.60;1.90;;;;;;;;;;5088571;28;20133;-62
2022/04/10 06:36:41;;;;;;;7.30;1.95;;;;;;;;;;5088059;28;20054;-62
2022/04/10 06:39:09;;;;;;;9.88;1.95;;;;;;;;;;5087705;28;20091;-62
2022/04/10 06:41:35;;;;;;;5.90;2.00;;;;;;;;;;5088657;28;20396;-62
2022/04/10 06:44:02;;;;;;;8.95;2.38;;;;;;;;;;5089580;28;20374;-62
2022/04/10 06:46:28;;;;;;;14.48;2.65;;;;;;;;;;5088059;28;20133;-62
2022/04/10 06:48:54;;;;;;;13.23;2.22;;;;;;;;;;5095338;28;20036;-62
2022/04/10 06:51:23;;;;;;;11.45;2.40;;;;;;;;;;5108302;28;20082;-62
2022/04/10 06:53:50;;;;;;;11.23;2.92;;;;;;;;;;5109394;28;20176;-62
2022/04/10 06:56:16;;;;;;;6.43;1.85;;;;;;;;;;5108553;28;20048;-62
2022/04/10 06:58:42;;;;;;;9.48;2.63;;;;;;;;;;5108121;28;20054;-62
2022/04/10 07:01:08;;;;;;;8.20;2.33;;;;;;;;;;5108005;28;20051;-62
2022/04/10 07:03:34;;;;;;;9.60;2.20;;;;;;;;;;5100907;28;20036;-62
2022/04/10 07:06:00;;;;;;;10.98;2.00;;;;;;;;;;5090776;28;20048;-62
2022/04/10 07:08:26;;;;;;;5.60;1.98;;;;;;;;;;5093601;28;20043;-62
2022/04/10 07:10:53;;;;;;;7.88;2.25;;;;;;;;;;5111548;28;20388;-62
2022/04/10 07:13:19;;;;;;;7.53;1.58;;;;;;;;;;5112296;28;20040;-62
2022/04/10 07:15:46;;;;;;;8.82;2.20;;;;;;;;;;5113069;28;20074;-62
2022/04/10 07:18:12;;;;;;;11.23;2.25;;;;;;;;;;5111290;28;20043;-61
2022/04/10 07:20:39;;;;;;;5.93;1.83;;;;;;;;;;5103710;28;20079;-62
2022/04/10 08:04:47;;;;;;;10.93;3.15;;;;;;;;;;5095284;28;20092;-62
2022/04/10 08:07:13;;;;;;;10.45;2.90;;;;;;;;;;5103127;28;20158;-62
2022/04/10 08:09:39;;;;;;;7.85;1.50;;;;;;;;;;5101548;28;20062;-62
2022/04/10 08:12:05;;;;;;;7.45;1.60;;;;;;;;;;5111320;28;20126;-62
2022/04/10 08:14:31;;;;;;;10.32;2.83;;;;;;;;;;5110697;28;20380;-62
2022/04/10 08:16:57;;;;;;;7.25;2.05;;;;;;;;;;5109107;28;20504;-62
2022/04/10 08:19:24;;;;;;;9.82;1.90;;;;;;;;;;5110326;28;20078;-62
2022/04/10 08:21:50;;;;;;;9.80;2.35;;;;;;;;;;5110938;28;20051;-62
2022/04/10 08:24:16;;;;;;;11.50;3.20;;;;;;;;;;5111912;28;20032;-62
2022/04/10 08:26:42;;;;;;;10.48;2.50;;;;;;;;;;5095650;28;20086;-62
2022/04/10 08:29:08;;;;;;;5.97;2.33;;;;;;;;;;5108136;28;20040;-62
2022/04/10 08:31:34;;;;;;;12.65;2.13;;;;;;;;;;5091340;28;20427;-62
2022/04/10 08:34:00;;;;;;;6.85;2.20;;;;;;;;;;5091982;28;20120;-62
2022/04/10 08:36:26;;;;;;;12.95;2.10;;;;;;;;;;5102567;28;20100;-62
2022/04/10 08:38:52;;;;;;;10.32;3.28;;;;;;;;;;5112281;28;20181;-62
2022/04/10 08:41:19;;;;;;;13.68;4.50;;;;;;;;;;5099926;28;20071;-62
2022/04/10 08:43:45;;;;;;;6.80;2.22;;;;;;;;;;5091524;28;20408;-62
2022/04/10 08:46:13;;;;;;;11.13;2.60;;;;;;;;;;5102601;28;20536;-62
2022/04/10 08:48:39;;;;;;;9.35;2.13;;;;;;;;;;5099304;28;20040;-62
2022/04/10 08:51:06;;;;;;;11.02;2.10;;;;;;;;;;5109703;28;20103;-62
2022/04/10 08:53:34;;;;;;;5.95;1.70;;;7.60;99.90;;;;;;5106811;28;20043;-62
2022/04/10 08:56:01;;;;;;;7.68;2.30;;;;;;;;;;5072274;28;20044;-63
2022/04/10 08:58:27;;;;;;;5.65;1.75;;;;;;;;;;5090086;28;20075;-62
2022/04/10 09:00:53;;;;;;;10.43;2.10;;;;;;;;;;5090326;28;20048;-62
2022/04/10 09:03:19;;;;;;;6.93;1.85;;;;;;;;;;5088626;28;20047;-62
2022/04/10 09:06:02;;;;;;;10.65;1.83;;;;;;;;;;5087288;28;20051;-62
2022/04/10 09:08:28;;;;;;;8.60;2.13;;;;;;;;;;5090098;28;20044;-62
2022/04/10 09:10:58;;;;;;;7.22;1.50;;;8.00;99.90;;;;;;5090470;28;20389;-62
2022/04/10 09:13:30;;;;;;;6.70;1.63;;;;;;;;;;5101089;28;20539;-61
2022/04/10 09:16:06;;;;;;;7.80;2.20;;;;;;;;;;5110621;28;20116;-62
2022/04/10 09:19:02;;;;;;;8.55;1.80;;;;;;;;;;5108256;27;20416;-62
2022/04/10 09:21:34;;;;;;;5.25;1.48;;;;;;;;;;5101684;28;20250;-62
2022/04/10 09:24:02;;;;;;;6.28;1.50;;;;;;;;;;5108706;28;20647;-62
2022/04/10 09:26:43;;;;;;;7.20;1.70;;;;;;;;;;5101501;28;20047;-62
2022/04/10 09:29:09;;;;;;;9.43;2.10;;;;;;;;;;5106794;28;20404;-62
2022/04/10 09:31:35;;;;;;;10.55;1.85;;;;;;;;;;5110074;28;20043;-62
2022/04/10 09:34:08;;;;;;;6.85;2.50;;;;;;;;;;5108636;28;20043;-62
2022/04/10 09:36:44;;;;;;;8.18;1.92;;;;;;;;;;5109459;28;20039;-62
2022/04/10 09:39:10;;;;;;;9.85;1.90;;;;;;;;;;5108757;28;20089;-62
2022/04/10 09:41:37;;;;;;;6.80;1.95;;;;;;;;;;5099790;28;20097;-62
2022/04/10 09:44:22;;;;;;;7.70;2.10;;;;;;;;;;5089356;28;20048;-62
2022/04/10 09:47:01;;;;;;;6.30;1.63;;;;;;;;;;5090015;28;20499;-62
2022/04/10 09:49:32;;;;;;;6.00;1.95;;;;;;;;;;5091241;28;20039;-62
2022/04/10 09:52:02;;;;;;;6.35;1.67;;;;;;;;;;5088829;28;20039;-62
2022/04/10 09:54:35;;;;;;;8.98;2.10;;;;;;;;;;5089905;28;20069;-62
2022/04/10 09:57:02;;;;;;;5.38;1.50;;;;;;;;;;5089055;28;20499;-62
2022/04/10 09:59:31;;;;;;;6.03;1.95;;;;;;;;;;5089816;28;20036;-62
2022/04/10 10:01:57;;;;;;;5.38;1.70;;;;;;;;;;5088802;28;20044;-62
2022/04/10 10:04:24;;;;;;;9.60;2.75;;;;;;;;;;5087749;28;20527;-62
2022/04/10 10:06:50;;;;;;;6.65;1.63;;;;;;;;;;5088957;28;20040;-62
2022/04/10 10:09:16;;;;;;;8.13;2.22;;;;;;;;;;5088987;28;20051;-62
2022/04/10 10:11:43;;;;;;;10.20;2.38;;;;;;;;;;5108772;28;20567;-62
2022/04/10 10:14:09;;;;;;;7.03;1.92;;;;;;;;;;5109047;28;20059;-62
2022/04/10 10:16:37;;;;;;;4.15;1.27;;;;;;;;;;5110164;28;20051;-62
2022/04/10 10:19:04;;;;;;;8.68;1.92;;;;;;;;;;5107828;28;20184;-62
2022/04/10 10:21:30;;;;;;;5.43;1.40;;;;;;;;;;5109625;28;20500;-62
2022/04/10 10:23:57;;;;;;;6.63;2.22;;;;;;;;;;5108982;28;20100;-62
2022/04/10 10:26:29;;;;;;;10.77;1.95;;;;;;;;;;5086710;28;20506;-63
2022/04/10 10:29:01;;;;;;;9.30;2.25;;;;;;;;;;5103891;28;20092;-62
2022/04/10 10:31:33;;;;;;;10.93;1.85;;;;;;;;;;5094386;28;20043;-62
2022/04/10 10:34:03;;;;;;;5.90;1.40;;;;;;;;;;5097928;28;20057;-63
2022/04/10 10:36:29;;;;;;;15.77;1.75;;;;;;;;;;5089046;28;20126;-62
2022/04/10 10:38:56;;;;;;;9.15;1.80;;;;;;;;;;5089281;28;20043;-62
2022/04/10 10:41:22;;;;;;;10.13;1.80;;;;;;;;;;5091912;28;20052;-62
2022/04/10 10:43:49;;;;;;;6.10;1.42;;;;;;;;;;5093295;28;20039;-62
2022/04/10 10:46:21;;;;;;;7.78;1.67;;;;;;;;;;5092020;28;20396;-62
2022/04/10 10:48:47;;;;;;;5.57;1.35;;;;;;;;;;5091135;28;20048;-62
2022/04/10 10:51:13;;;;;;;8.07;1.73;;;;;;;;;;5091798;28;20058;-62
2022/04/10 10:53:58;;;;;;;9.52;1.52;;;;;;;;;;5106827;28;20504;-62
2022/04/10 10:56:33;;;;;;;5.78;1.90;;;9.20;99.90;;;;;;5112165;28;20066;-62
2022/04/10 10:59:23;;;;;;;10.02;1.85;;;9.30;99.90;;;;;;5112393;28;20129;-62
2022/04/10 11:01:55;;;;;;;8.32;2.10;;;;;;;;;;5112716;28;20515;-62
2022/04/10 11:04:22;;;;;;;5.75;1.40;;;;;;;;;;5111216;28;20522;-62
2022/04/10 11:06:48;;;;;;;6.97;2.70;;;;;;;;;;5094640;28;20166;-62
2022/04/10 11:09:44;;;;;;;8.50;1.55;;;;;;;;;;5110792;28;20071;-62
2022/04/10 11:12:13;;;;;;;3.72;1.40;;;;;;;;;;5099157;28;20084;-63
2022/04/10 11:14:40;;;;;;;8.38;1.50;;;;;;;;;;5112416;28;20047;-62
2022/04/10 11:17:30;;;;;;;5.43;1.15;;;;;;;;;;5110931;28;20051;-62
2022/04/10 11:19:58;;;;;;;5.95;1.50;;;;;;;;;;5102960;28;20092;-62
2022/04/10 11:22:40;;;;;;;6.95;1.13;;;;;;;;;;5110631;28;20052;-62
2022/04/10 11:25:07;;;;;;;8.77;1.73;;;;;;;;;;5107733;28;20131;-62
2022/04/10 11:27:41;;;;;;;10.07;1.80;;;;;;;;;;5100072;28;20507;-62
2022/04/10 11:30:08;;;;;;;7.60;1.63;;;;;;;;;;5110478;28;20036;-62
2022/04/10 11:32:53;;;;;;;6.80;1.45;;;;;;;;;;5107472;28;20044;-62
2022/04/10 11:35:24;;;;;;;3.72;1.15;;;;;;;;;;5091165;28;20051;-62
2022/04/10 11:37:51;;;;;;;5.65;1.27;;;;;;;;;;5105538;28;20407;-64
2022/04/10 11:40:18;;;;;;;7.45;1.70;;;;;;;;;;5098688;28;20048;-62
2022/04/10 11:42:44;;;;;;;6.30;1.65;;;;;;;;;;5090923;28;20040;-63
2022/04/10 11:45:11;;;;;;;11.90;2.65;;;;;;;;;;5112633;28;20392;-63
2022/04/10 11:47:39;;;;;;;7.03;1.75;;;;;;;;;;5112341;28;20044;-63
2022/04/10 11:50:06;;;;;;;10.27;2.40;;;;;;;;;;5108957;28;20036;-62
2022/04/10 11:52:32;;;;;;;5.32;1.30;;;;;;;;;;5076311;28;20047;-62
2022/04/10 11:54:58;;;;;;;3.92;1.40;;;;;;;;;;5091616;28;20044;-62
2022/04/10 11:57:24;;;;;;;6.55;1.77;;;;;;;;;;5091658;28;20043;-62
2022/04/10 11:59:51;;;;;;;7.40;1.42;;;;;;;;;;5096837;28;20040;-63
2022/04/10 12:02:17;;;;;;;4.25;1.33;;;;;;;;;;5103249;28;20075;-62
2022/04/10 12:04:44;;;;;;;5.55;1.75;;;;;;;;;;5109504;28;20048;-62
2022/04/10 12:07:13;;;;;;;9.68;1.40;;;;;;;;;;5111473;28;20108;-62
2022/04/10 12:09:40;;;;;;;9.07;1.48;;;;;;;;;;5093798;28;20054;-62
2022/04/10 12:12:06;;;;;;;8.02;1.33;;;;;;;;;;5111410;28;20097;-62
2022/04/10 12:14:33;;;;;;;5.53;1.65;;;;;;;;;;5111373;28;20058;-62
2022/04/10 12:16:59;;;;;;;6.22;1.63;;;;;;;;;;5107425;28;20069;-62
2022/04/10 12:19:33;;;;;;;7.25;1.35;;;;;;;;;;5108621;28;20115;-62
2022/04/10 12:21:59;;;;;;;5.88;1.60;;;;;;;;;;5110376;28;20131;-62
2022/04/10 12:24:25;;;;;;;5.25;2.40;;;;;;;;;;5111565;28;20440;-62
2022/04/10 12:26:51;;;;;;;7.13;1.35;;;;;;;;;;5108649;28;20070;-63
2022/04/10 12:29:17;;;;;;;4.82;1.20;;;;;;;;;;5109086;28;20079;-62
2022/04/10 12:31:45;;;;;;;4.55;1.25;;;;;;;;;;5110787;28;20122;-62
2022/04/10 12:34:12;;;;;;;8.20;1.45;;;;;;;;;;5106867;28;20047;-62
2022/04/10 12:36:48;;;;;;;6.72;1.50;;;;;;;;;;5104729;28;20152;-63
2022/04/10 12:39:28;;;;;;;6.35;1.30;;;12.70;99.90;;;;;;5096881;28;20075;-62
2022/04/10 12:42:14;;;;;;;7.85;2.03;;;9.80;99.90;;;;;;5109502;28;20048;-62
2022/04/10 12:44:40;;;;;;;9.38;1.75;;;;;;;;;;5111419;28;20043;-62
2022/04/10 12:47:08;;;;;;;6.03;1.63;;;10.10;99.90;;;;;;5111021;28;20558;-62
2022/04/10 12:49:35;;;;;;;6.88;1.77;;;;;;;;;;5104138;28;20119;-62
2022/04/10 12:52:04;;;;;;;4.25;1.13;;;;;;;;;;5090537;28;20052;-62
2022/04/10 12:54:34;;;;;;;7.72;1.75;;;;;;;;;;5098147;28;20036;-63
2022/04/10 12:57:00;;;;;;;5.45;1.45;;;;;;;;;;5110261;28;20047;-63
2022/04/10 12:59:46;;;;;;;7.00;1.73;;;9.50;99.90;;;;;;5107407;28;20151;-62
2022/04/10 13:02:21;;;;;;;7.65;1.80;;;;;;;;;;5096925;28;20047;-62
2022/04/10 13:04:54;;;;;;;6.35;1.45;;;;;;;;;;5090446;28;20052;-62
2022/04/10 13:07:20;;;;;;;4.82;1.92;;;;;;;;;;5099018;28;20515;-62
2022/04/10 13:09:50;;;;;;;5.35;1.30;;;;;;;;;;5090110;28;20446;-62
2022/04/10 13:12:27;;;;;;;5.38;1.60;;;9.50;99.90;;;;;;5100803;28;20491;-62
2022/04/10 13:14:53;;;;;;;9.40;1.38;;;;;;;;;;5088590;28;20052;-62
2022/04/10 13:17:19;;;;;;;4.88;1.33;;;;;;;;;;5088712;28;20044;-62
2022/04/10 13:19:45;;;;;;;5.03;1.30;;;;;;;;;;5090249;28;20036;-62
2022/04/10 13:22:11;;;;;;;7.30;2.13;;;;;;;;;;5089990;28;20377;-63
2022/04/10 13:24:37;;;;;;;9.15;2.45;;;;;;;;;;5072405;28;20546;-63
2022/04/10 13:27:06;;;;;;;6.50;1.10;;;;;;;;;;5086722;28;20040;-62
2022/04/10 13:29:32;;;;;;;4.40;1.10;;;;;;;;;;5089725;28;20569;-62
2022/04/10 13:31:59;;;;;;;5.70;1.38;;;;;;;;;;5104026;28;20048;-62
2022/04/10 13:34:27;;;;;;;4.55;1.00;;;;;;;;;;5090295;28;20127;-63
2022/04/10 13:36:53;;;;;;;3.83;0.95;;;;;;;;;;5089620;28;20544;-62
2022/04/10 13:39:19;;;;;;;6.00;1.17;;;;;;;;;;5088581;28;20043;-62
2022/04/10 13:41:48;;;;;;;6.25;1.25;;;;;;;;;;5090171;28;20040;-62
2022/04/10 13:44:13;;;;;;;5.35;1.25;;;;;;;;;;5088131;28;20046;-63
2022/04/10 13:46:40;;;;;;;3.70;1.00;;;;;;;;;;5090146;28;20551;-62
2022/04/10 13:49:09;;;;;;;5.72;0.65;;;;;;;;;;5089100;28;20052;-63
2022/04/10 13:51:35;;;;;;;5.05;1.00;;;;;;;;;;5089564;28;20094;-63
2022/04/10 13:54:02;;;;;;;3.83;1.58;;;;;;;;;;5089914;28;20040;-62
2022/04/10 13:56:29;;;;;;;4.68;1.17;;;;;;;;;;5089872;28;20044;-62
2022/04/10 13:58:55;;;;;;;3.47;1.08;;;;;;;;;;5104369;28;20054;-62
2022/04/10 14:01:21;;;;;;;4.90;1.20;;;;;;;;;;5102422;28;20092;-63
2022/04/10 14:03:47;;;;;;;6.05;1.38;;;;;;;;;;5078720;28;20083;-63
2022/04/10 14:06:13;;;;;;;3.92;1.15;;;;;;;;;;5070733;28;20048;-63
2022/04/10 14:08:39;;;;;;;4.85;1.23;;;;;;;;;;5088949;28;20097;-63
2022/04/10 14:11:05;;;;;;;8.82;1.33;;;;;;;;;;5088205;28;20047;-63
2022/04/10 14:13:31;;;;;;;6.60;1.80;;;11.00;99.90;;;;;;5088042;28;20122;-63
2022/04/10 14:15:57;;;;;;;6.13;1.48;;;;;;;;;;5088424;28;20040;-62
2022/04/10 14:18:23;;;;;;;4.20;1.35;;;;;;;;;;5087709;28;20052;-62
2022/04/10 14:20:49;;;;;;;5.63;1.50;;;;;;;;;;5077479;28;20092;-63
2022/04/10 14:23:15;;;;;;;5.97;1.45;;;;;;;;;;5099753;28;20122;-64
2022/04/10 14:25:41;;;;;;;3.00;0.90;;;;;;;;;;5095126;28;20567;-64
2022/04/10 14:28:07;;;;;;;8.93;1.40;;;;;;;;;;5102713;28;20036;-63
2022/04/10 14:30:33;;;;;;;7.40;1.75;;;;;;;;;;5109814;28;20031;-64
2022/04/10 14:32:59;;;;;;;7.47;1.08;;;;;;;;;;5105348;28;20036;-64
2022/04/10 14:35:25;;;;;;;7.68;1.67;;;;;;;;;;5103672;28;20040;-64
2022/04/10 14:37:51;;;;;;;7.88;1.52;;;;;;;;;;5100259;28;20039;-64
2022/04/10 14:40:17;;;;;;;6.35;1.92;;;;;;;;;;5104014;28;20147;-64
2022/04/10 14:42:43;;;;;;;9.32;1.70;;;;;;;;;;5109467;28;20036;-64
2022/04/10 14:45:10;;;;;;;6.20;1.40;;;;;;;;;;5100574;28;20392;-63
2022/04/10 14:47:36;;;;;;;3.70;1.13;;;;;;;;;;5105422;28;20047;-62
2022/04/10 14:50:02;;;;;;;6.07;1.30;;;;;;;;;;5109568;28;20043;-63
2022/04/10 14:52:28;;;;;;;4.32;1.13;;;;;;;;;;5109521;28;20043;-63
2022/04/10 14:54:54;;;;;;;4.72;1.13;;;;;;;;;;5098633;28;20044;-63